sensor_id;sensor_type;location;lat;lon;timestamp;pressure;altitude;pressure_sealevel;temperature;humidity
60918;BME280;46792;38.854;-9.384;2023-04-06T00:00:04;99424.13;;;13.46;82.61
60918;BME280;46792;38.854;-9.384;2023-04-06T00:02:09;99416.78;;;13.47;82.65
60918;BME280;46792;38.854;-9.384;2023-04-06T00:04:10;99422.69;;;13.54;82.70
60918;BME280;46792;38.854;-9.384;2023-04-06T00:06:29;99422.91;;;13.58;82.31
60918;BME280;46792;38.854;-9.384;2023-04-06T00:08:30;99414.25;;;13.56;82.22
60918;BME280;46792;38.854;-9.384;2023-04-06T00:10:30;99414.25;;;13.56;81.79
60918;BME280;46792;38.854;-9.384;2023-04-06T00:12:31;99418.88;;;13.55;82.40
60918;BME280;46792;38.854;-9.384;2023-04-06T00:14:32;99415.16;;;13.46;82.77
60918;BME280;46792;38.854;-9.384;2023-04-06T00:16:32;99411.88;;;13.49;82.50
60918;BME280;46792;38.854;-9.384;2023-04-06T00:18:33;99409.69;;;13.51;82.88
60918;BME280;46792;38.854;-9.384;2023-04-06T00:20:34;99406.47;;;13.49;82.48
60918;BME280;46792;38.854;-9.384;2023-04-06T00:22:35;99405.44;;;13.39;82.81
60918;BME280;46792;38.854;-9.384;2023-04-06T00:24:36;99408.03;;;13.55;82.65
60918;BME280;46792;38.854;-9.384;2023-04-06T00:26:36;99415.03;;;13.56;82.40
60918;BME280;46792;38.854;-9.384;2023-04-06T00:28:37;99410.69;;;13.60;82.36
60918;BME280;46792;38.854;-9.384;2023-04-06T00:30:57;99399.25;;;13.63;82.49
60918;BME280;46792;38.854;-9.384;2023-04-06T00:32:57;99402.84;;;13.59;82.36
60918;BME280;46792;38.854;-9.384;2023-04-06T00:34:58;99405.25;;;13.60;82.55
60918;BME280;46792;38.854;-9.384;2023-04-06T00:37:18;99400.69;;;13.56;82.23
60918;BME280;46792;38.854;-9.384;2023-04-06T00:39:19;99400.69;;;13.56;82.27
60918;BME280;46792;38.854;-9.384;2023-04-06T00:41:20;99404.97;;;13.62;82.16
60918;BME280;46792;38.854;-9.384;2023-04-06T00:43:21;99409.63;;;13.56;82.12
60918;BME280;46792;38.854;-9.384;2023-04-06T00:45:21;99405.06;;;13.51;82.50
60918;BME280;46792;38.854;-9.384;2023-04-06T00:47:41;99402.94;;;13.48;82.77
60918;BME280;46792;38.854;-9.384;2023-04-06T00:49:42;99394.53;;;13.50;82.42
60918;BME280;46792;38.854;-9.384;2023-04-06T00:51:42;99402.94;;;13.48;82.35
60918;BME280;46792;38.854;-9.384;2023-04-06T00:54:01;99391.06;;;13.44;81.84
60918;BME280;46792;38.854;-9.384;2023-04-06T00:56:21;99396.75;;;13.43;81.64
60918;BME280;46792;38.854;-9.384;2023-04-06T00:58:26;99391.94;;;13.34;81.93
60918;BME280;46792;38.854;-9.384;2023-04-06T01:00:36;99388.72;;;13.27;81.58
60918;BME280;46792;38.854;-9.384;2023-04-06T01:02:37;99389.25;;;13.29;81.65
60918;BME280;46792;38.854;-9.384;2023-04-06T01:04:38;99377.66;;;13.23;82.18
60918;BME280;46792;38.854;-9.384;2023-04-06T01:06:58;99386.09;;;13.22;82.53
60918;BME280;46792;38.854;-9.384;2023-04-06T01:11:51;99371.44;;;13.23;82.58
60918;BME280;46792;38.854;-9.384;2023-04-06T01:14:10;99370.81;;;13.31;82.49
60918;BME280;46792;38.854;-9.384;2023-04-06T01:16:29;99366.13;;;13.37;82.11
60918;BME280;46792;38.854;-9.384;2023-04-06T01:18:51;99356.06;;;13.43;81.46
60918;BME280;46792;38.854;-9.384;2023-04-06T01:21:00;99367.44;;;13.45;82.25
60918;BME280;46792;38.854;-9.384;2023-04-06T01:23:02;99365.22;;;13.52;81.64
60918;BME280;46792;38.854;-9.384;2023-04-06T01:25:21;99348.88;;;13.57;81.46
60918;BME280;46792;38.854;-9.384;2023-04-06T01:27:40;99341.03;;;13.56;81.12
60918;BME280;46792;38.854;-9.384;2023-04-06T01:30:18;99335.38;;;13.52;80.63
60918;BME280;46792;38.854;-9.384;2023-04-06T01:32:26;99341.91;;;13.51;80.21
60918;BME280;46792;38.854;-9.384;2023-04-06T01:36:46;99333.53;;;13.47;80.84
60918;BME280;46792;38.854;-9.384;2023-04-06T01:38:56;99324.00;;;13.50;80.86
60918;BME280;46792;38.854;-9.384;2023-04-06T01:41:04;99327.69;;;13.59;80.34
60918;BME280;46792;38.854;-9.384;2023-04-06T01:43:15;99323.31;;;13.63;79.75
60918;BME280;46792;38.854;-9.384;2023-04-06T01:45:35;99316.41;;;13.52;79.63
60918;BME280;46792;38.854;-9.384;2023-04-06T01:47:46;99317.53;;;13.46;79.79
60918;BME280;46792;38.854;-9.384;2023-04-06T01:50:05;99320.03;;;13.37;79.96
60918;BME280;46792;38.854;-9.384;2023-04-06T01:54:50;99326.81;;;13.39;79.54
60918;BME280;46792;38.854;-9.384;2023-04-06T01:57:00;99327.66;;;13.40;79.53
60918;BME280;46792;38.854;-9.384;2023-04-06T01:59:27;99324.78;;;13.26;80.06
60918;BME280;46792;38.854;-9.384;2023-04-06T02:01:28;99330.19;;;13.26;80.19
60918;BME280;46792;38.854;-9.384;2023-04-06T02:03:47;99315.53;;;13.27;80.35
60918;BME280;46792;38.854;-9.384;2023-04-06T02:05:48;99327.56;;;13.21;80.88
60918;BME280;46792;38.854;-9.384;2023-04-06T02:08:07;99315.13;;;13.15;81.38
60918;BME280;46792;38.854;-9.384;2023-04-06T02:10:15;99317.06;;;13.14;80.96
60918;BME280;46792;38.854;-9.384;2023-04-06T02:12:17;99321.41;;;13.10;81.62
60918;BME280;46792;38.854;-9.384;2023-04-06T02:14:18;99324.88;;;13.16;80.99
60918;BME280;46792;38.854;-9.384;2023-04-06T02:16:24;99320.59;;;13.09;81.51
60918;BME280;46792;38.854;-9.384;2023-04-06T02:18:25;99315.00;;;13.01;81.99
60918;BME280;46792;38.854;-9.384;2023-04-06T02:20:26;99316.41;;;12.93;82.90
60918;BME280;46792;38.854;-9.384;2023-04-06T02:22:27;99317.44;;;12.68;85.68
60918;BME280;46792;38.854;-9.384;2023-04-06T02:24:27;99323.72;;;12.63;87.34
60918;BME280;46792;38.854;-9.384;2023-04-06T02:26:28;99321.88;;;12.58;88.55
60918;BME280;46792;38.854;-9.384;2023-04-06T02:28:29;99329.22;;;12.53;89.60
60918;BME280;46792;38.854;-9.384;2023-04-06T02:30:29;99316.47;;;12.53;89.83
60918;BME280;46792;38.854;-9.384;2023-04-06T02:32:32;99314.03;;;12.57;89.68
60918;BME280;46792;38.854;-9.384;2023-04-06T02:34:33;99311.03;;;12.58;89.83
60918;BME280;46792;38.854;-9.384;2023-04-06T02:36:34;99310.72;;;12.60;90.22
60918;BME280;46792;38.854;-9.384;2023-04-06T02:38:35;99313.16;;;12.67;89.77
60918;BME280;46792;38.854;-9.384;2023-04-06T02:40:36;99311.19;;;12.72;89.57
60918;BME280;46792;38.854;-9.384;2023-04-06T02:42:55;99313.31;;;12.75;89.31
60918;BME280;46792;38.854;-9.384;2023-04-06T02:45:02;99304.16;;;12.71;88.02
60918;BME280;46792;38.854;-9.384;2023-04-06T02:47:08;99307.91;;;12.75;87.93
60918;BME280;46792;38.854;-9.384;2023-04-06T02:49:11;99315.56;;;12.68;87.41
60918;BME280;46792;38.854;-9.384;2023-04-06T02:51:12;99309.66;;;12.61;87.45
60918;BME280;46792;38.854;-9.384;2023-04-06T02:53:15;99309.97;;;12.54;87.65
60918;BME280;46792;38.854;-9.384;2023-04-06T02:55:16;99308.63;;;12.57;87.73
60918;BME280;46792;38.854;-9.384;2023-04-06T02:57:17;99301.59;;;12.56;87.74
60918;BME280;46792;38.854;-9.384;2023-04-06T02:59:21;99302.66;;;12.55;88.12
60918;BME280;46792;38.854;-9.384;2023-04-06T03:01:32;99299.91;;;12.60;87.86
60918;BME280;46792;38.854;-9.384;2023-04-06T03:03:37;99306.44;;;12.59;88.10
60918;BME280;46792;38.854;-9.384;2023-04-06T03:05:42;99296.41;;;12.59;88.25
60918;BME280;46792;38.854;-9.384;2023-04-06T03:07:43;99289.56;;;12.67;87.54
60918;BME280;46792;38.854;-9.384;2023-04-06T03:09:52;99296.03;;;12.71;87.15
60918;BME280;46792;38.854;-9.384;2023-04-06T03:11:52;99291.97;;;12.69;87.21
60918;BME280;46792;38.854;-9.384;2023-04-06T03:14:12;99295.00;;;12.62;87.34
60918;BME280;46792;38.854;-9.384;2023-04-06T03:16:12;99294.31;;;12.51;87.60
60918;BME280;46792;38.854;-9.384;2023-04-06T03:18:31;99289.94;;;12.55;87.50
60918;BME280;46792;38.854;-9.384;2023-04-06T03:20:51;99293.41;;;12.61;87.36
60918;BME280;46792;38.854;-9.384;2023-04-06T03:23:12;99288.78;;;12.67;87.08
60918;BME280;46792;38.854;-9.384;2023-04-06T03:25:16;99288.81;;;12.61;87.70
60918;BME280;46792;38.854;-9.384;2023-04-06T03:27:18;99291.00;;;12.54;87.84
60918;BME280;46792;38.854;-9.384;2023-04-06T03:29:21;99306.53;;;12.43;88.71
60918;BME280;46792;38.854;-9.384;2023-04-06T03:31:40;99300.03;;;12.44;89.05
60918;BME280;46792;38.854;-9.384;2023-04-06T03:33:59;99301.28;;;12.57;88.02
60918;BME280;46792;38.854;-9.384;2023-04-06T03:36:05;99304.56;;;12.54;88.37
60918;BME280;46792;38.854;-9.384;2023-04-06T03:38:11;99308.94;;;12.50;88.44
60918;BME280;46792;38.854;-9.384;2023-04-06T03:40:12;99313.75;;;12.58;88.00
60918;BME280;46792;38.854;-9.384;2023-04-06T03:42:12;99298.91;;;12.51;88.16
60918;BME280;46792;38.854;-9.384;2023-04-06T03:44:20;99311.66;;;12.50;88.71
60918;BME280;46792;38.854;-9.384;2023-04-06T03:46:21;99308.34;;;12.53;88.33
60918;BME280;46792;38.854;-9.384;2023-04-06T03:48:25;99302.50;;;12.41;89.16
60918;BME280;46792;38.854;-9.384;2023-04-06T03:50:26;99300.63;;;12.41;89.40
60918;BME280;46792;38.854;-9.384;2023-04-06T03:52:26;99299.78;;;12.41;89.66
60918;BME280;46792;38.854;-9.384;2023-04-06T03:54:46;99300.09;;;12.34;90.13
60918;BME280;46792;38.854;-9.384;2023-04-06T03:56:46;99299.88;;;12.30;90.29
60918;BME280;46792;38.854;-9.384;2023-04-06T03:58:47;99298.50;;;12.28;90.38
60918;BME280;46792;38.854;-9.384;2023-04-06T04:01:09;99300.13;;;12.29;91.10
60918;BME280;46792;38.854;-9.384;2023-04-06T04:03:10;99293.41;;;12.26;90.95
60918;BME280;46792;38.854;-9.384;2023-04-06T04:05:10;99300.66;;;12.31;91.39
60918;BME280;46792;38.854;-9.384;2023-04-06T04:07:11;99300.66;;;12.31;91.28
60918;BME280;46792;38.854;-9.384;2023-04-06T04:09:12;99291.44;;;12.37;91.36
60918;BME280;46792;38.854;-9.384;2023-04-06T04:11:12;99298.13;;;12.45;91.38
60918;BME280;46792;38.854;-9.384;2023-04-06T04:13:13;99291.06;;;12.49;91.30
60918;BME280;46792;38.854;-9.384;2023-04-06T04:15:17;99289.47;;;12.48;91.69
60918;BME280;46792;38.854;-9.384;2023-04-06T04:17:18;99289.69;;;12.52;91.35
60918;BME280;46792;38.854;-9.384;2023-04-06T04:19:19;99290.00;;;12.50;92.57
60918;BME280;46792;38.854;-9.384;2023-04-06T04:21:19;99290.78;;;12.51;92.39
60918;BME280;46792;38.854;-9.384;2023-04-06T04:23:20;99294.03;;;12.53;92.04
60918;BME280;46792;38.854;-9.384;2023-04-06T04:25:22;99280.81;;;12.46;92.28
60918;BME280;46792;38.854;-9.384;2023-04-06T04:27:23;99288.69;;;12.42;92.12
60918;BME280;46792;38.854;-9.384;2023-04-06T04:29:25;99303.00;;;12.48;91.74
60918;BME280;46792;38.854;-9.384;2023-04-06T04:31:27;99310.63;;;12.36;91.74
60918;BME280;46792;38.854;-9.384;2023-04-06T04:33:32;99307.75;;;12.27;91.67
60918;BME280;46792;38.854;-9.384;2023-04-06T04:35:36;99307.56;;;12.13;92.52
60918;BME280;46792;38.854;-9.384;2023-04-06T04:37:38;99301.84;;;12.14;92.53
60918;BME280;46792;38.854;-9.384;2023-04-06T04:39:39;99304.56;;;12.14;92.51
60918;BME280;46792;38.854;-9.384;2023-04-06T04:44:01;99300.19;;;12.24;92.90
60918;BME280;46792;38.854;-9.384;2023-04-06T04:46:21;99301.31;;;12.17;93.21
60918;BME280;46792;38.854;-9.384;2023-04-06T04:48:21;99298.06;;;12.15;93.53
60918;BME280;46792;38.854;-9.384;2023-04-06T04:50:40;99302.41;;;12.11;93.32
60918;BME280;46792;38.854;-9.384;2023-04-06T04:52:59;99307.56;;;12.08;93.28
60918;BME280;46792;38.854;-9.384;2023-04-06T04:55:01;99299.22;;;12.04;92.63
60918;BME280;46792;38.854;-9.384;2023-04-06T04:57:03;99297.91;;;12.01;92.81
60918;BME280;46792;38.854;-9.384;2023-04-06T04:59:12;99291.91;;;12.05;92.51
60918;BME280;46792;38.854;-9.384;2023-04-06T05:01:17;99297.91;;;12.01;93.21
60918;BME280;46792;38.854;-9.384;2023-04-06T05:03:23;99308.34;;;12.19;93.51
60918;BME280;46792;38.854;-9.384;2023-04-06T05:05:38;99309.97;;;12.14;93.75
60918;BME280;46792;38.854;-9.384;2023-04-06T05:07:40;99306.22;;;12.10;94.45
60918;BME280;46792;38.854;-9.384;2023-04-06T05:09:44;99303.53;;;12.05;95.07
60918;BME280;46792;38.854;-9.384;2023-04-06T05:11:46;99307.88;;;12.01;95.11
60918;BME280;46792;38.854;-9.384;2023-04-06T05:13:47;99308.97;;;12.00;94.96
60918;BME280;46792;38.854;-9.384;2023-04-06T05:15:53;99306.81;;;12.02;95.38
60918;BME280;46792;38.854;-9.384;2023-04-06T05:17:58;99304.88;;;12.08;94.95
60918;BME280;46792;38.854;-9.384;2023-04-06T05:20:06;99297.06;;;12.01;95.46
60918;BME280;46792;38.854;-9.384;2023-04-06T05:22:15;99302.22;;;12.02;95.77
60918;BME280;46792;38.854;-9.384;2023-04-06T05:24:28;99304.09;;;12.02;96.24
60918;BME280;46792;38.854;-9.384;2023-04-06T05:26:29;99305.13;;;12.11;96.91
60918;BME280;46792;38.854;-9.384;2023-04-06T05:28:36;99302.16;;;12.13;97.77
60918;BME280;46792;38.854;-9.384;2023-04-06T05:30:38;99305.91;;;12.17;98.44
60918;BME280;46792;38.854;-9.384;2023-04-06T05:32:39;99305.09;;;12.16;98.95
60918;BME280;46792;38.854;-9.384;2023-04-06T05:34:40;99317.53;;;12.17;99.60
60918;BME280;46792;38.854;-9.384;2023-04-06T05:36:41;99310.69;;;12.30;98.99
60918;BME280;46792;38.854;-9.384;2023-04-06T05:38:51;99317.22;;;12.24;99.20
60918;BME280;46792;38.854;-9.384;2023-04-06T05:41:08;99315.59;;;12.23;99.63
60918;BME280;46792;38.854;-9.384;2023-04-06T05:43:10;99312.66;;;12.20;100.00
60918;BME280;46792;38.854;-9.384;2023-04-06T05:45:15;99304.53;;;12.20;100.00
60918;BME280;46792;38.854;-9.384;2023-04-06T05:47:35;99317.78;;;12.21;100.00
60918;BME280;46792;38.854;-9.384;2023-04-06T05:49:54;99311.00;;;12.24;100.00
60918;BME280;46792;38.854;-9.384;2023-04-06T05:52:13;99317.75;;;12.26;100.00
60918;BME280;46792;38.854;-9.384;2023-04-06T05:54:18;99320.22;;;12.23;100.00
60918;BME280;46792;38.854;-9.384;2023-04-06T05:56:19;99317.50;;;12.23;100.00
60918;BME280;46792;38.854;-9.384;2023-04-06T05:58:20;99313.44;;;12.20;100.00
60918;BME280;46792;38.854;-9.384;2023-04-06T06:00:22;99324.03;;;12.16;100.00
60918;BME280;46792;38.854;-9.384;2023-04-06T06:06:04;99314.72;;;12.33;100.00
60918;BME280;46792;38.854;-9.384;2023-04-06T06:08:15;99322.41;;;12.21;100.00
60918;BME280;46792;38.854;-9.384;2023-04-06T06:10:16;99327.28;;;12.13;100.00
60918;BME280;46792;38.854;-9.384;2023-04-06T06:12:16;99322.41;;;12.15;100.00
60918;BME280;46792;38.854;-9.384;2023-04-06T06:14:17;99322.72;;;12.14;100.00
60918;BME280;46792;38.854;-9.384;2023-04-06T06:16:18;99327.28;;;12.13;100.00
60918;BME280;46792;38.854;-9.384;2023-04-06T06:18:21;99315.94;;;12.11;100.00
60918;BME280;46792;38.854;-9.384;2023-04-06T06:20:25;99324.59;;;12.13;100.00
60918;BME280;46792;38.854;-9.384;2023-04-06T06:22:26;99319.44;;;12.17;100.00
60918;BME280;46792;38.854;-9.384;2023-04-06T06:24:27;99324.56;;;12.19;100.00
60918;BME280;46792;38.854;-9.384;2023-04-06T06:26:28;99325.91;;;12.21;100.00
60918;BME280;46792;38.854;-9.384;2023-04-06T06:28:28;99319.66;;;12.26;100.00
60918;BME280;46792;38.854;-9.384;2023-04-06T06:30:30;99318.31;;;12.23;100.00
60918;BME280;46792;38.854;-9.384;2023-04-06T06:32:32;99322.38;;;12.26;100.00
60918;BME280;46792;38.854;-9.384;2023-04-06T06:34:33;99324.53;;;12.24;100.00
60918;BME280;46792;38.854;-9.384;2023-04-06T06:36:37;99322.09;;;12.22;100.00
60918;BME280;46792;38.854;-9.384;2023-04-06T06:38:41;99320.25;;;12.17;100.00
60918;BME280;46792;38.854;-9.384;2023-04-06T06:41:00;99331.91;;;12.18;100.00
60918;BME280;46792;38.854;-9.384;2023-04-06T06:43:07;99333.50;;;12.19;100.00
60918;BME280;46792;38.854;-9.384;2023-04-06T06:45:20;99348.06;;;12.23;100.00
60918;BME280;46792;38.854;-9.384;2023-04-06T06:47:20;99336.47;;;12.23;100.00
60918;BME280;46792;38.854;-9.384;2023-04-06T06:49:39;99342.13;;;12.21;100.00
60918;BME280;46792;38.854;-9.384;2023-04-06T06:51:40;99338.38;;;12.17;100.00
60918;BME280;46792;38.854;-9.384;2023-04-06T06:53:41;99335.94;;;12.21;100.00
60918;BME280;46792;38.854;-9.384;2023-04-06T06:55:42;99336.16;;;12.24;100.00
60918;BME280;46792;38.854;-9.384;2023-04-06T06:58:04;99335.84;;;12.31;100.00
60918;BME280;46792;38.854;-9.384;2023-04-06T07:00:07;99345.03;;;12.35;100.00
60918;BME280;46792;38.854;-9.384;2023-04-06T07:02:08;99347.22;;;12.33;100.00
60918;BME280;46792;38.854;-9.384;2023-04-06T07:04:09;99355.34;;;12.28;100.00
60918;BME280;46792;38.854;-9.384;2023-04-06T07:06:09;99354.03;;;12.20;100.00
60918;BME280;46792;38.854;-9.384;2023-04-06T07:08:13;99357.88;;;12.14;100.00
60918;BME280;46792;38.854;-9.384;2023-04-06T07:10:15;99355.19;;;12.09;100.00
60918;BME280;46792;38.854;-9.384;2023-04-06T07:12:16;99349.56;;;12.00;100.00
60918;BME280;46792;38.854;-9.384;2023-04-06T07:14:17;99355.25;;;11.88;100.00
60918;BME280;46792;38.854;-9.384;2023-04-06T07:16:17;99357.19;;;11.82;100.00
60918;BME280;46792;38.854;-9.384;2023-04-06T07:18:36;99354.53;;;11.72;100.00
60918;BME280;46792;38.854;-9.384;2023-04-06T07:20:38;99359.94;;;11.67;100.00
60918;BME280;46792;38.854;-9.384;2023-04-06T07:22:42;99366.16;;;11.67;100.00
60918;BME280;46792;38.854;-9.384;2023-04-06T07:24:42;99366.97;;;11.68;100.00
60918;BME280;46792;38.854;-9.384;2023-04-06T07:26:43;99365.88;;;11.74;100.00
60918;BME280;46792;38.854;-9.384;2023-04-06T07:28:44;99366.41;;;11.76;100.00
60918;BME280;46792;38.854;-9.384;2023-04-06T07:30:47;99359.63;;;11.79;100.00
60918;BME280;46792;38.854;-9.384;2023-04-06T07:32:49;99370.16;;;11.85;100.00
60918;BME280;46792;38.854;-9.384;2023-04-06T07:35:08;99367.94;;;11.98;100.00
60918;BME280;46792;38.854;-9.384;2023-04-06T07:37:09;99366.06;;;11.98;100.00
60918;BME280;46792;38.854;-9.384;2023-04-06T07:39:10;99370.88;;;12.12;100.00
60918;BME280;46792;38.854;-9.384;2023-04-06T07:41:11;99370.31;;;12.15;100.00
60918;BME280;46792;38.854;-9.384;2023-04-06T07:43:12;99382.19;;;12.24;100.00
60918;BME280;46792;38.854;-9.384;2023-04-06T07:45:13;99378.66;;;12.24;100.00
60918;BME280;46792;38.854;-9.384;2023-04-06T07:47:15;99383.00;;;12.25;100.00
60918;BME280;46792;38.854;-9.384;2023-04-06T07:49:16;99382.94;;;12.30;100.00
60918;BME280;46792;38.854;-9.384;2023-04-06T07:51:37;99387.56;;;12.35;100.00
60918;BME280;46792;38.854;-9.384;2023-04-06T07:53:56;99392.97;;;12.35;100.00
60918;BME280;46792;38.854;-9.384;2023-04-06T07:56:15;99388.34;;;12.35;100.00
60918;BME280;46792;38.854;-9.384;2023-04-06T07:58:21;99388.28;;;12.45;100.00
60918;BME280;46792;38.854;-9.384;2023-04-06T08:00:22;99389.34;;;12.50;100.00
60918;BME280;46792;38.854;-9.384;2023-04-06T08:02:23;99388.75;;;12.58;100.00
60918;BME280;46792;38.854;-9.384;2023-04-06T08:04:24;99387.66;;;12.59;100.00
60918;BME280;46792;38.854;-9.384;2023-04-06T08:06:24;99397.38;;;12.65;100.00
60918;BME280;46792;38.854;-9.384;2023-04-06T08:08:25;99401.69;;;12.66;100.00
60918;BME280;46792;38.854;-9.384;2023-04-06T08:10:26;99396.56;;;12.65;100.00
60918;BME280;46792;38.854;-9.384;2023-04-06T08:12:26;99409.06;;;12.55;100.00
60918;BME280;46792;38.854;-9.384;2023-04-06T08:14:27;99410.69;;;12.56;100.00
60918;BME280;46792;38.854;-9.384;2023-04-06T08:16:28;99399.72;;;12.37;100.00
60918;BME280;46792;38.854;-9.384;2023-04-06T08:18:28;99401.66;;;12.21;100.00
60918;BME280;46792;38.854;-9.384;2023-04-06T08:20:30;99404.34;;;12.26;100.00
60918;BME280;46792;38.854;-9.384;2023-04-06T08:22:30;99405.09;;;12.42;100.00
60918;BME280;46792;38.854;-9.384;2023-04-06T08:24:31;99412.63;;;12.45;100.00
60918;BME280;46792;38.854;-9.384;2023-04-06T08:26:32;99409.97;;;12.40;100.00
60918;BME280;46792;38.854;-9.384;2023-04-06T08:28:33;99402.41;;;12.42;100.00
60918;BME280;46792;38.854;-9.384;2023-04-06T08:30:35;99406.19;;;12.41;100.00
60918;BME280;46792;38.854;-9.384;2023-04-06T08:32:36;99408.28;;;12.50;100.00
60918;BME280;46792;38.854;-9.384;2023-04-06T08:34:55;99409.59;;;12.57;100.00
60918;BME280;46792;38.854;-9.384;2023-04-06T08:37:14;99415.00;;;12.62;100.00
60918;BME280;46792;38.854;-9.384;2023-04-06T08:39:15;99423.34;;;12.71;100.00
60918;BME280;46792;38.854;-9.384;2023-04-06T08:41:34;99423.75;;;12.89;100.00
60918;BME280;46792;38.854;-9.384;2023-04-06T08:43:48;99423.91;;;13.03;100.00
60918;BME280;46792;38.854;-9.384;2023-04-06T08:45:49;99428.19;;;13.09;100.00
60918;BME280;46792;38.854;-9.384;2023-04-06T08:47:50;99421.81;;;13.24;100.00
60918;BME280;46792;38.854;-9.384;2023-04-06T08:49:52;99414.41;;;13.35;100.00
60918;BME280;46792;38.854;-9.384;2023-04-06T08:51:54;99419.44;;;13.52;100.00
60918;BME280;46792;38.854;-9.384;2023-04-06T08:56:54;99416.94;;;13.85;100.00
60918;BME280;46792;38.854;-9.384;2023-04-06T08:58:57;99420.00;;;14.03;100.00
60918;BME280;46792;38.854;-9.384;2023-04-06T09:00:58;99417.13;;;14.13;100.00
60918;BME280;46792;38.854;-9.384;2023-04-06T09:03:00;99420.06;;;14.17;100.00
60918;BME280;46792;38.854;-9.384;2023-04-06T09:05:01;99422.88;;;14.11;100.00
60918;BME280;46792;38.854;-9.384;2023-04-06T09:07:01;99430.06;;;14.21;100.00
60918;BME280;46792;38.854;-9.384;2023-04-06T09:09:02;99423.31;;;14.38;100.00
60918;BME280;46792;38.854;-9.384;2023-04-06T09:11:03;99426.44;;;14.50;100.00
60918;BME280;46792;38.854;-9.384;2023-04-06T09:13:05;99425.34;;;14.51;100.00
60918;BME280;46792;38.854;-9.384;2023-04-06T09:15:17;99421.94;;;14.59;100.00
60918;BME280;46792;38.854;-9.384;2023-04-06T09:17:22;99432.75;;;14.65;100.00
60918;BME280;46792;38.854;-9.384;2023-04-06T09:19:23;99423.31;;;14.81;100.00
60918;BME280;46792;38.854;-9.384;2023-04-06T09:21:23;99426.50;;;15.02;100.00
60918;BME280;46792;38.854;-9.384;2023-04-06T09:23:24;99433.31;;;15.19;100.00
60918;BME280;46792;38.854;-9.384;2023-04-06T09:25:25;99426.06;;;15.28;99.87
60918;BME280;46792;38.854;-9.384;2023-04-06T09:27:38;99429.22;;;15.35;97.28
60918;BME280;46792;38.854;-9.384;2023-04-06T09:29:39;99429.66;;;15.57;97.06
60918;BME280;46792;38.854;-9.384;2023-04-06T09:31:40;99418.28;;;15.69;97.04
60918;BME280;46792;38.854;-9.384;2023-04-06T09:33:43;99424.34;;;15.79;91.88
60918;BME280;46792;38.854;-9.384;2023-04-06T09:35:49;99423.34;;;15.89;89.34
60918;BME280;46792;38.854;-9.384;2023-04-06T09:38:12;99427.00;;;15.99;86.59
60918;BME280;46792;38.854;-9.384;2023-04-06T09:40:31;99425.59;;;16.15;85.21
60918;BME280;46792;38.854;-9.384;2023-04-06T09:42:50;99420.59;;;16.31;83.29
60918;BME280;46792;38.854;-9.384;2023-04-06T09:44:53;99425.34;;;16.39;81.14
60918;BME280;46792;38.854;-9.384;2023-04-06T09:46:54;99416.50;;;16.56;81.33
60918;BME280;46792;38.854;-9.384;2023-04-06T09:48:55;99420.69;;;16.77;80.86
60918;BME280;46792;38.854;-9.384;2023-04-06T09:50:59;99414.97;;;17.01;76.06
60918;BME280;46792;38.854;-9.384;2023-04-06T09:53:19;99421.84;;;17.21;72.05
60918;BME280;46792;38.854;-9.384;2023-04-06T09:55:43;99423.81;;;17.29;72.21
60918;BME280;46792;38.854;-9.384;2023-04-06T09:59:57;99404.03;;;17.46;73.70
60918;BME280;46792;38.854;-9.384;2023-04-06T10:04:49;99418.00;;;17.85;67.09
60918;BME280;46792;38.854;-9.384;2023-04-06T10:06:54;99414.88;;;18.09;68.94
60918;BME280;46792;38.854;-9.384;2023-04-06T10:08:56;99420.66;;;18.17;67.61
60918;BME280;46792;38.854;-9.384;2023-04-06T10:10:58;99410.75;;;18.30;68.19
60918;BME280;46792;38.854;-9.384;2023-04-06T10:12:59;99419.09;;;18.42;63.98
60918;BME280;46792;38.854;-9.384;2023-04-06T10:15:03;99416.25;;;18.65;65.43
60918;BME280;46792;38.854;-9.384;2023-04-06T10:17:23;99415.56;;;18.85;59.62
60918;BME280;46792;38.854;-9.384;2023-04-06T10:24:53;99403.09;;;19.50;55.18
60918;BME280;46792;38.854;-9.384;2023-04-06T10:26:58;99407.84;;;19.70;55.29
60918;BME280;46792;38.854;-9.384;2023-04-06T10:29:17;99406.34;;;19.90;54.79
60918;BME280;46792;38.854;-9.384;2023-04-06T10:31:27;99399.97;;;20.08;52.88
60918;BME280;46792;38.854;-9.384;2023-04-06T10:33:28;99410.66;;;20.21;45.78
60918;BME280;46792;38.854;-9.384;2023-04-06T10:35:38;99412.63;;;20.42;46.71
60918;BME280;46792;38.854;-9.384;2023-04-06T10:37:53;99410.38;;;20.65;45.47
60918;BME280;46792;38.854;-9.384;2023-04-06T10:39:53;99411.84;;;20.84;42.84
60918;BME280;46792;38.854;-9.384;2023-04-06T10:42:07;99409.88;;;21.06;41.08
60918;BME280;46792;38.854;-9.384;2023-04-06T10:44:19;99409.94;;;21.31;36.25
60918;BME280;46792;38.854;-9.384;2023-04-06T10:46:31;99403.47;;;21.48;35.98
60918;BME280;46792;38.854;-9.384;2023-04-06T10:50:59;99405.97;;;21.53;33.39
60918;BME280;46792;38.854;-9.384;2023-04-06T10:53:26;99394.13;;;21.61;37.29
60918;BME280;46792;38.854;-9.384;2023-04-06T10:55:27;99397.91;;;21.81;38.94
60918;BME280;46792;38.854;-9.384;2023-04-06T10:57:29;99397.22;;;21.84;35.26
60918;BME280;46792;38.854;-9.384;2023-04-06T10:59:31;99405.47;;;21.97;36.23
60918;BME280;46792;38.854;-9.384;2023-04-06T11:01:31;99404.78;;;22.00;34.23
60918;BME280;46792;38.854;-9.384;2023-04-06T11:03:52;99396.88;;;22.11;35.46
60918;BME280;46792;38.854;-9.384;2023-04-06T11:05:53;99395.81;;;22.28;36.41
60918;BME280;46792;38.854;-9.384;2023-04-06T11:07:53;99396.50;;;22.50;36.99
60918;BME280;46792;38.854;-9.384;2023-04-06T11:09:54;99392.31;;;22.68;35.96
60918;BME280;46792;38.854;-9.384;2023-04-06T11:11:55;99390.78;;;22.99;32.29
60918;BME280;46792;38.854;-9.384;2023-04-06T11:13:58;99389.56;;;23.13;31.48
60918;BME280;46792;38.854;-9.384;2023-04-06T11:15:59;99387.84;;;23.36;28.34
60918;BME280;46792;38.854;-9.384;2023-04-06T11:18:03;99385.28;;;23.44;29.08
60918;BME280;46792;38.854;-9.384;2023-04-06T11:20:26;99388.91;;;23.64;26.64
60918;BME280;46792;38.854;-9.384;2023-04-06T11:22:52;99385.16;;;23.88;26.63
60918;BME280;46792;38.854;-9.384;2023-04-06T11:25:11;99376.19;;;23.75;24.11